createdAt,value
2023-02-24T00:00:32.196Z,83.00
2023-02-24T00:03:05.712Z,81.21
2023-02-24T00:05:37.228Z,81.02
2023-02-24T00:08:03.780Z,81.92
2023-02-24T00:10:30.417Z,82.00
2023-02-24T00:12:56.986Z,81.38
2023-02-24T00:15:23.506Z,81.73
2023-02-24T00:17:50.041Z,80.73
2023-02-24T00:20:16.918Z,81.17
2023-02-24T00:22:44.888Z,81.95
2023-02-24T00:25:12.218Z,81.05
2023-02-24T00:27:38.786Z,80.65
2023-02-24T00:30:07.664Z,80.19
2023-02-24T00:32:36.399Z,80.01
2023-02-24T00:35:03.346Z,79.76
2023-02-24T00:37:30.596Z,81.14
2023-02-24T00:39:58.699Z,82.11
2023-02-24T00:42:25.617Z,81.76
2023-02-24T00:44:54.091Z,80.94
2023-02-24T00:47:22.471Z,81.38
2023-02-24T00:49:50.362Z,81.46
2023-02-24T00:52:19.909Z,82.01
2023-02-24T00:54:48.688Z,80.51
2023-02-24T00:57:18.192Z,80.62
2023-02-24T00:59:47.665Z,80.14
2023-02-24T01:02:15.334Z,79.71
2023-02-24T01:04:44.679Z,79.58
2023-02-24T01:07:13.469Z,80.24
2023-02-24T01:09:41.955Z,79.98
2023-02-24T01:12:29.692Z,80.06
2023-02-24T01:14:56.343Z,80.36
2023-02-24T01:17:23.114Z,80.94
2023-02-24T01:19:50.442Z,81.04
2023-02-24T01:22:19.899Z,82.15
2023-02-24T01:24:47.268Z,81.49
2023-02-24T01:27:17.704Z,80.58
2023-02-24T01:29:45.634Z,80.76
2023-02-24T01:32:19.012Z,80.69
2023-02-24T01:34:46.989Z,80.45
2023-02-24T01:37:16.443Z,80.40
2023-02-24T01:39:47.598Z,80.81
2023-02-24T01:42:20.101Z,81.20
2023-02-24T01:44:46.878Z,80.80
2023-02-24T01:47:16.339Z,81.66
2023-02-24T01:49:47.205Z,82.17
2023-02-24T01:52:19.445Z,81.45
2023-02-24T01:54:55.095Z,81.38
2023-02-24T01:57:24.387Z,81.13
2023-02-24T01:59:54.779Z,81.53
2023-02-24T02:02:23.546Z,80.83
2023-02-24T02:04:58.894Z,80.88
2023-02-24T02:07:29.030Z,80.74
2023-02-24T02:10:00.120Z,80.40
2023-02-24T02:12:28.479Z,81.39
2023-02-24T02:14:58.203Z,81.08
2023-02-24T02:17:45.833Z,79.99
2023-02-24T02:20:53.810Z,80.63
2023-02-24T02:23:32.766Z,80.24
2023-02-24T02:26:43.887Z,80.35
2023-02-24T02:29:31.281Z,80.57
2023-02-24T02:31:57.865Z,80.86
2023-02-24T02:34:31.492Z,81.29
2023-02-24T02:37:12.169Z,80.64
2023-02-24T02:40:01.457Z,81.02
2023-02-24T02:42:34.231Z,80.58
2023-02-24T02:45:20.346Z,80.59
2023-02-24T02:48:09.600Z,80.77
2023-02-24T02:50:53.286Z,80.43
2023-02-24T02:53:37.456Z,80.04
2023-02-24T02:56:11.471Z,79.97
2023-02-24T02:58:46.099Z,80.27
2023-02-24T03:01:18.347Z,80.94
2023-02-24T03:03:50.925Z,80.87
2023-02-24T03:06:30.196Z,80.63
2023-02-24T03:09:16.325Z,80.73
2023-02-24T03:11:49.004Z,80.29
2023-02-24T03:14:19.304Z,81.15
2023-02-24T03:16:49.266Z,80.30
2023-02-24T03:19:20.900Z,80.21
2023-02-24T03:21:59.177Z,80.73
2023-02-24T03:24:28.026Z,80.58
2023-02-24T03:27:08.938Z,80.27
2023-02-24T03:29:45.910Z,81.51
2023-02-24T03:32:21.864Z,81.39
2023-02-24T03:34:56.851Z,80.52
2023-02-24T03:37:27.851Z,80.41
2023-02-24T03:39:59.035Z,80.28
2023-02-24T03:42:33.859Z,80.35
2023-02-24T03:45:01.849Z,81.03
2023-02-24T03:47:28.530Z,80.96
2023-02-24T03:49:55.074Z,80.20
2023-02-24T03:52:58.124Z,80.19
2023-02-24T03:56:02.425Z,80.30
2023-02-24T03:59:12.920Z,79.86
2023-02-24T04:01:39.681Z,80.09
2023-02-24T04:04:31.633Z,79.54
2023-02-24T04:07:33.062Z,80.32
2023-02-24T04:10:12.763Z,79.98
2023-02-24T04:13:14.258Z,80.49
2023-02-24T04:15:46.540Z,79.53
2023-02-24T04:18:24.225Z,78.86
2023-02-24T04:20:53.336Z,79.10
2023-02-24T04:23:29.978Z,79.36
2023-02-24T04:25:56.973Z,80.00
2023-02-24T04:28:27.224Z,81.12
2023-02-24T04:30:59.257Z,80.87
2023-02-24T04:33:26.307Z,80.29
2023-02-24T04:35:53.591Z,80.36
2023-02-24T04:38:21.667Z,80.74
2023-02-24T04:40:50.035Z,81.15
2023-02-24T04:43:17.443Z,80.74
2023-02-24T04:45:44.714Z,80.19
2023-02-24T04:48:14.223Z,79.49
2023-02-24T04:50:43.806Z,79.84
2023-02-24T04:53:16.079Z,79.42
2023-02-24T04:55:48.642Z,80.12
2023-02-24T04:58:27.969Z,80.20
2023-02-24T05:00:55.879Z,79.79
2023-02-24T05:03:28.320Z,80.53
2023-02-24T05:06:00.075Z,79.71
2023-02-24T05:08:28.745Z,80.04
2023-02-24T05:10:57.338Z,79.55
2023-02-24T05:13:27.923Z,80.52
2023-02-24T05:15:56.915Z,81.04
2023-02-24T05:18:25.474Z,80.58
2023-02-24T05:21:12.988Z,80.16
2023-02-24T05:23:44.620Z,83.56
2023-02-24T05:26:17.555Z,81.50
2023-02-24T05:28:54.670Z,81.13
2023-02-24T05:31:26.188Z,80.80
2023-02-24T05:33:57.521Z,80.39
2023-02-24T05:36:26.170Z,80.00
2023-02-24T05:38:57.872Z,80.15
2023-02-24T05:41:32.479Z,80.97
2023-02-24T05:44:02.553Z,80.25
2023-02-24T05:46:33.438Z,79.88
2023-02-24T05:49:06.134Z,79.30
2023-02-24T05:51:36.637Z,80.22
2023-02-24T05:54:05.183Z,80.20
2023-02-24T05:56:43.578Z,80.85
2023-02-24T05:59:12.407Z,80.03
2023-02-24T06:01:41.621Z,80.07
2023-02-24T06:04:09.935Z,79.39
2023-02-24T06:06:38.952Z,80.67
2023-02-24T06:09:12.575Z,80.18
2023-02-24T06:11:42.193Z,79.47
2023-02-24T06:14:10.758Z,79.42
2023-02-24T06:16:39.871Z,79.38
2023-02-24T06:19:08.439Z,80.03
2023-02-24T06:21:36.333Z,79.46
2023-02-24T06:24:03.041Z,79.79
2023-02-24T06:26:33.782Z,79.01
2023-02-24T06:29:00.632Z,80.77
2023-02-24T06:31:27.743Z,81.32
2023-02-24T06:33:54.469Z,80.05
2023-02-24T06:36:21.287Z,79.21
2023-02-24T06:38:49.483Z,79.15
2023-02-24T06:41:16.560Z,79.63
2023-02-24T06:43:44.832Z,78.26
2023-02-24T06:46:13.450Z,77.56
2023-02-24T06:48:40.289Z,78.60
2023-02-24T06:51:10.554Z,79.10
2023-02-24T06:53:43.132Z,78.58
2023-02-24T06:56:15.638Z,78.42
2023-02-24T06:58:51.230Z,78.23
2023-02-24T11:32:30.242Z,56.88
2023-02-24T11:35:09.527Z,54.40
2023-02-24T11:37:43.344Z,56.22
2023-02-24T11:40:10.309Z,54.07
2023-02-24T11:42:48.542Z,54.99
2023-02-24T11:45:38.169Z,55.72
2023-02-24T11:48:19.625Z,55.27
2023-02-24T11:50:53.563Z,55.22
2023-02-24T11:53:28.851Z,53.24
2023-02-24T11:56:01.719Z,53.75
2023-02-24T11:58:37.775Z,52.78
2023-02-24T12:01:33.824Z,53.14
2023-02-24T12:04:17.759Z,55.06
2023-02-24T12:06:57.101Z,55.00
2023-02-24T12:09:30.188Z,52.74
2023-02-24T12:12:03.171Z,53.73
2023-02-24T12:14:38.326Z,54.32
2023-02-24T12:17:18.281Z,52.94
2023-02-24T12:20:06.014Z,51.85
2023-02-24T12:22:46.004Z,53.40
2023-02-24T12:25:15.005Z,54.08
2023-02-24T12:27:51.089Z,53.51
2023-02-24T12:30:38.246Z,53.48
2023-02-24T12:33:27.953Z,54.47
2023-02-24T12:36:20.260Z,52.59
2023-02-24T12:39:16.012Z,53.24
2023-02-24T12:42:26.307Z,52.74
2023-02-24T12:45:11.583Z,53.34
2023-02-24T12:47:53.447Z,54.56
2023-02-24T12:50:37.552Z,54.53
2023-02-24T12:53:42.897Z,55.95
2023-02-24T12:56:22.445Z,55.61
2023-02-24T12:58:52.797Z,56.65
2023-02-24T13:01:46.966Z,56.07
2023-02-24T13:04:13.540Z,57.55
2023-02-24T13:07:01.544Z,56.60
2023-02-24T13:09:33.885Z,56.33
2023-02-24T13:12:13.321Z,56.64
2023-02-24T13:14:44.209Z,56.51
2023-02-24T13:17:11.054Z,56.29
2023-02-24T13:19:47.973Z,55.46
2023-02-24T13:22:15.432Z,55.60
2023-02-24T13:24:51.087Z,56.02
2023-02-24T13:27:24.954Z,55.87
2023-02-24T13:29:57.897Z,55.26
2023-02-24T13:32:54.013Z,56.28
2023-02-24T13:35:28.684Z,56.33
2023-02-24T13:37:55.432Z,55.55
2023-02-24T13:40:27.255Z,56.09
2023-02-24T13:43:00.003Z,55.46
2023-02-24T13:45:32.425Z,55.68
2023-02-24T13:48:32.306Z,55.33
2023-02-24T13:51:33.877Z,55.43
2023-02-24T13:54:11.946Z,55.00
2023-02-24T13:56:51.297Z,54.73
2023-02-24T13:59:37.077Z,55.06
2023-02-24T14:02:16.030Z,56.22
2023-02-24T14:04:50.544Z,55.04
2023-02-24T14:07:35.056Z,55.35
2023-02-24T14:10:15.072Z,54.29
2023-02-24T14:12:44.604Z,54.10
2023-02-24T14:15:20.627Z,55.18
2023-02-24T14:17:59.940Z,54.56
2023-02-24T14:20:30.924Z,54.77
2023-02-24T14:23:01.063Z,54.27
2023-02-24T14:25:34.480Z,53.96
2023-02-24T14:28:01.641Z,54.45
2023-02-24T14:30:37.406Z,53.99
2023-02-24T14:33:07.214Z,54.36
2023-02-24T14:35:45.408Z,54.28
2023-02-24T14:38:30.263Z,55.53
2023-02-24T14:40:57.143Z,53.15
2023-02-24T14:43:25.913Z,54.84
2023-02-24T14:45:57.983Z,54.19
2023-02-24T14:48:30.492Z,53.89
2023-02-24T14:51:04.841Z,55.19
2023-02-24T14:53:33.505Z,54.41
2023-02-24T14:56:04.925Z,54.30
2023-02-24T14:59:02.233Z,55.27
2023-02-24T15:01:56.561Z,54.73
2023-02-24T15:04:37.293Z,55.60
2023-02-24T15:07:07.988Z,56.03
2023-02-24T15:09:40.507Z,55.99
2023-02-24T15:12:12.529Z,55.37
2023-02-24T15:14:39.724Z,55.28
2023-02-24T15:17:16.090Z,56.26
2023-02-24T15:19:46.595Z,56.01
2023-02-24T15:22:48.215Z,58.31
2023-02-24T15:25:37.117Z,56.29
2023-02-24T15:28:31.534Z,56.05
2023-02-24T15:31:16.190Z,57.26
2023-02-24T15:33:46.136Z,56.63
2023-02-24T15:36:19.891Z,57.24
2023-02-24T15:38:51.076Z,57.82
2023-02-24T15:41:17.654Z,58.56
2023-02-24T15:43:45.693Z,59.43
2023-02-24T15:46:18.755Z,60.51
2023-02-24T15:48:54.010Z,61.12
2023-02-24T15:51:42.109Z,62.69
2023-02-24T15:54:15.701Z,63.20
2023-02-24T15:56:43.406Z,63.45
2023-02-24T15:59:14.419Z,62.74
2023-02-24T16:01:41.267Z,65.11
2023-02-24T16:04:11.752Z,66.45
2023-02-24T16:06:41.812Z,67.35
2023-02-24T16:09:14.986Z,68.58
2023-02-24T16:11:46.048Z,67.92
2023-02-24T16:14:16.841Z,67.71
2023-02-24T16:16:43.864Z,69.37
2023-02-24T16:19:14.321Z,68.50
2023-02-24T16:21:41.010Z,69.40
2023-02-24T16:24:07.911Z,70.33
2023-02-24T16:26:41.242Z,69.57
2023-02-24T16:29:14.040Z,71.82
2023-02-24T16:31:41.440Z,72.23
2023-02-24T16:34:08.160Z,70.94
2023-02-24T16:36:35.706Z,72.38
2023-02-24T16:39:04.757Z,73.17
2023-02-24T16:41:31.627Z,72.59
2023-02-24T16:43:58.175Z,73.82
2023-02-24T16:46:29.082Z,75.86
2023-02-24T16:48:55.854Z,74.67
2023-02-24T16:51:22.568Z,75.95
2023-02-24T16:53:49.273Z,76.22
2023-02-24T16:56:16.170Z,78.36
2023-02-24T16:58:42.722Z,75.27
2023-02-24T17:01:18.322Z,76.18
2023-02-24T17:03:46.864Z,75.01
2023-02-24T17:06:13.680Z,74.92
2023-02-24T17:08:43.597Z,75.82
2023-02-24T17:11:15.764Z,74.69
2023-02-24T17:13:43.705Z,75.34
2023-02-24T17:16:11.755Z,75.59
2023-02-24T17:18:38.380Z,76.60
2023-02-24T17:21:05.505Z,77.90
2023-02-24T17:23:35.119Z,77.02
2023-02-24T17:26:02.357Z,75.98
2023-02-24T17:28:29.437Z,76.13
2023-02-24T17:30:56.371Z,76.21
2023-02-24T17:33:23.293Z,76.02
2023-02-24T17:35:49.956Z,76.31
2023-02-24T17:38:19.273Z,76.69
2023-02-24T17:40:46.652Z,76.91
2023-02-24T17:43:13.654Z,76.49
2023-02-24T17:45:44.334Z,77.85
2023-02-24T17:48:12.017Z,78.29
2023-02-24T17:50:41.372Z,77.58
2023-02-24T17:53:08.393Z,77.66
2023-02-24T17:55:34.955Z,77.24
2023-02-24T17:58:01.675Z,78.49
2023-02-24T18:00:29.142Z,78.77
2023-02-24T18:02:56.381Z,78.72
2023-02-24T18:05:23.170Z,78.67
2023-02-24T18:07:50.068Z,78.11
2023-02-24T18:10:17.324Z,78.84
2023-02-24T18:12:44.105Z,80.81
2023-02-24T18:15:11.167Z,78.89
2023-02-24T18:17:38.949Z,80.64
2023-02-24T18:20:07.584Z,79.36
2023-02-24T18:22:34.972Z,78.36
2023-02-24T18:25:01.603Z,78.69
2023-02-24T18:27:28.818Z,80.89
2023-02-24T18:29:55.466Z,79.88
2023-02-24T18:32:22.490Z,79.46
2023-02-24T18:34:49.708Z,78.54
2023-02-24T18:37:16.255Z,78.41
2023-02-24T18:39:43.031Z,78.19
2023-02-24T18:42:09.951Z,77.01
2023-02-24T18:44:36.539Z,76.99
2023-02-24T18:47:09.651Z,79.28
2023-02-24T18:49:37.255Z,78.60
2023-02-24T18:52:05.422Z,79.35
2023-02-24T18:54:37.037Z,78.27
2023-02-24T18:57:07.760Z,78.03
2023-02-24T18:59:34.840Z,78.17
2023-02-24T19:02:01.727Z,77.95
2023-02-24T19:04:28.296Z,79.09
2023-02-24T19:06:55.771Z,80.26
2023-02-24T19:09:22.822Z,79.11
2023-02-24T19:11:50.211Z,78.41
2023-02-24T19:14:17.007Z,79.02
2023-02-24T19:16:43.845Z,78.81
2023-02-24T19:19:17.235Z,78.43
2023-02-24T19:21:48.645Z,78.27
2023-02-24T19:24:16.963Z,79.11
2023-02-24T19:26:45.933Z,78.44
2023-02-24T19:29:13.520Z,77.82
2023-02-24T19:31:40.560Z,78.05
2023-02-24T19:34:12.059Z,77.47
2023-02-24T19:36:42.254Z,76.95
2023-02-24T19:39:15.155Z,78.18
2023-02-24T19:41:43.265Z,76.91
2023-02-24T19:44:10.947Z,77.37
2023-02-24T19:46:40.882Z,76.85
2023-02-24T19:49:07.612Z,77.85
2023-02-24T19:51:34.318Z,76.67
2023-02-24T19:54:06.337Z,76.93
2023-02-24T19:56:37.104Z,75.67
2023-02-24T19:59:07.048Z,75.91
2023-02-24T20:01:39.465Z,75.38
2023-02-24T20:04:13.756Z,76.93
2023-02-24T20:06:44.191Z,77.69
2023-02-24T20:09:34.645Z,77.11
2023-02-24T20:12:16.713Z,76.63
2023-02-24T20:15:00.126Z,76.95
2023-02-24T20:17:31.460Z,76.78
2023-02-24T20:20:00.185Z,75.78
2023-02-24T20:22:33.863Z,76.13
2023-02-24T20:25:00.888Z,76.34
2023-02-24T20:27:27.553Z,76.73
2023-02-24T20:30:01.288Z,77.06
2023-02-24T20:32:31.086Z,76.88
2023-02-24T20:35:00.571Z,76.26
2023-02-24T20:37:34.843Z,75.30
2023-02-24T20:40:03.752Z,77.15
2023-02-24T20:42:33.480Z,78.29
2023-02-24T20:45:01.895Z,78.37
2023-02-24T20:47:32.256Z,78.98
2023-02-24T20:50:01.991Z,79.14
2023-02-24T20:52:28.923Z,79.29
2023-02-24T20:55:00.193Z,80.01
2023-02-24T20:57:27.757Z,78.98
2023-02-24T21:00:07.203Z,78.67
2023-02-24T21:02:41.297Z,79.21
2023-02-24T21:05:17.735Z,80.38
2023-02-24T21:07:47.268Z,79.49
2023-02-24T21:10:14.445Z,79.91
2023-02-24T21:12:43.931Z,78.77
2023-02-24T21:15:14.744Z,78.39
2023-02-24T21:17:44.192Z,79.10
2023-02-24T21:20:11.958Z,78.66
2023-02-24T21:22:41.300Z,78.64
2023-02-24T21:25:12.648Z,78.13
2023-02-24T21:27:42.199Z,81.41
2023-02-24T21:30:12.202Z,80.39
2023-02-24T21:32:40.732Z,79.08
2023-02-24T21:35:08.337Z,79.24
2023-02-24T21:37:35.235Z,78.91
2023-02-24T21:40:11.508Z,78.44
2023-02-24T21:42:43.951Z,77.04
2023-02-24T21:45:11.908Z,77.06
2023-02-24T21:47:48.297Z,77.57
2023-02-24T21:50:16.061Z,77.69
2023-02-24T21:52:45.567Z,75.87
2023-02-24T21:55:18.962Z,76.46
2023-02-24T21:57:48.107Z,76.77
2023-02-24T22:00:20.917Z,75.70
2023-02-24T22:02:50.506Z,78.55
2023-02-24T22:05:18.295Z,78.38
2023-02-24T22:07:45.978Z,77.25
2023-02-24T22:10:15.829Z,77.73
2023-02-24T22:12:42.843Z,77.17
2023-02-24T22:15:10.495Z,78.56
2023-02-24T22:17:38.627Z,77.77
2023-02-24T22:20:08.907Z,76.87
2023-02-24T22:22:40.487Z,76.78
2023-02-24T22:25:10.371Z,77.44
2023-02-24T22:27:37.432Z,76.42
2023-02-24T22:30:04.813Z,76.31
2023-02-24T22:32:34.774Z,76.60
2023-02-24T22:35:04.645Z,77.21
2023-02-24T22:37:31.430Z,77.78
2023-02-24T22:39:58.216Z,77.51
2023-02-24T22:42:25.869Z,78.49
2023-02-24T22:44:58.186Z,78.24
2023-02-24T22:47:25.291Z,77.58
2023-02-24T22:49:52.029Z,78.24
2023-02-24T22:52:19.241Z,78.61
2023-02-24T22:54:46.009Z,79.30
2023-02-24T22:57:12.867Z,79.33
2023-02-24T22:59:40.691Z,78.60
2023-02-24T23:02:09.753Z,78.41
2023-02-24T23:04:36.659Z,78.90
2023-02-24T23:07:03.440Z,77.91
2023-02-24T23:09:30.481Z,77.92
2023-02-24T23:11:57.130Z,78.83
